createdAt,value
2023-05-13T00:01:14.814Z,99342.13
2023-05-13T00:03:42.321Z,99341.25
2023-05-13T00:06:09.746Z,99345.63
2023-05-13T00:08:37.077Z,99334.34
2023-05-13T00:11:04.400Z,99335.31
2023-05-13T00:13:31.293Z,99328.41
2023-05-13T00:15:58.567Z,99326.75
2023-05-13T00:18:25.960Z,99338.13
2023-05-13T00:20:53.214Z,99340.75
2023-05-13T00:23:20.122Z,99335.56
2023-05-13T00:25:47.320Z,99337.34
2023-05-13T00:28:15.184Z,99335.63
2023-05-13T00:30:43.878Z,99336.50
2023-05-13T00:33:11.020Z,99335.66
2023-05-13T00:35:38.242Z,99333.09
2023-05-13T00:38:05.420Z,99337.41
2023-05-13T00:40:34.759Z,99337.47
2023-05-13T00:43:01.621Z,99340.94
2023-05-13T00:45:28.923Z,99332.25
2023-05-13T00:47:55.929Z,99345.28
2023-05-13T00:50:23.498Z,99344.44
2023-05-13T00:52:51.299Z,99349.72
2023-05-13T00:55:18.469Z,99347.13
2023-05-13T00:57:45.445Z,99347.16
2023-05-13T01:00:13.088Z,99346.31
2023-05-13T01:02:50.410Z,99350.69
2023-05-13T01:05:45.664Z,99348.16
2023-05-13T01:08:31.989Z,99347.34
2023-05-13T01:11:08.471Z,99348.25
2023-05-13T01:13:43.137Z,99350.00
2023-05-13T01:16:18.592Z,99354.38
2023-05-13T01:18:51.531Z,99350.91
2023-05-13T01:21:29.126Z,99348.38
2023-05-13T01:23:56.304Z,99355.31
2023-05-13T01:26:25.436Z,99350.13
2023-05-13T01:28:52.512Z,99360.59
2023-05-13T01:31:21.003Z,99361.50
2023-05-13T01:33:49.423Z,99356.28
2023-05-13T01:36:17.706Z,99359.78
2023-05-13T01:38:45.143Z,99361.50
2023-05-13T01:41:12.245Z,99358.09
2023-05-13T01:43:39.210Z,99357.19
2023-05-13T01:46:12.648Z,99363.31
2023-05-13T01:48:39.556Z,99353.78
2023-05-13T01:51:07.099Z,99362.50
2023-05-13T01:53:34.001Z,99356.44
2023-05-13T01:56:01.204Z,99357.28
2023-05-13T01:58:28.001Z,99361.66
2023-05-13T02:00:55.255Z,99355.56
2023-05-13T02:03:22.172Z,99359.03
2023-05-13T02:05:49.292Z,99359.94
2023-05-13T02:08:16.289Z,99355.63
2023-05-13T02:10:43.447Z,99356.47
2023-05-13T02:13:10.323Z,99350.41
2023-05-13T02:15:37.909Z,99355.66
2023-05-13T02:18:04.928Z,99353.06
2023-05-13T02:20:32.095Z,99357.38
2023-05-13T02:22:58.988Z,99354.78
2023-05-13T02:25:26.239Z,99359.09
2023-05-13T02:27:53.092Z,99360.84
2023-05-13T02:30:20.651Z,99363.44
2023-05-13T02:32:47.845Z,99358.22
2023-05-13T02:35:15.189Z,99361.66
2023-05-13T02:37:42.003Z,99371.22
2023-05-13T02:40:09.782Z,99364.25
2023-05-13T02:42:36.798Z,99368.63
2023-05-13T02:45:04.170Z,99372.94
2023-05-13T02:47:31.272Z,99377.28
2023-05-13T02:49:58.557Z,99381.59
2023-05-13T02:52:25.484Z,99389.41
2023-05-13T02:54:52.713Z,99388.59
2023-05-13T02:57:19.580Z,99388.63
2023-05-13T02:59:46.779Z,99388.63
2023-05-13T03:02:13.617Z,99390.34
2023-05-13T03:04:41.390Z,99386.88
2023-05-13T03:07:08.359Z,99392.03
2023-05-13T03:09:39.142Z,99400.72
2023-05-13T03:12:06.947Z,99395.44
2023-05-13T03:14:37.246Z,99395.41
2023-05-13T03:17:04.654Z,99395.41
2023-05-13T03:19:32.900Z,99401.47
2023-05-13T03:21:59.804Z,99399.66
2023-05-13T03:24:26.980Z,99398.72
2023-05-13T03:26:54.031Z,99395.09
2023-05-13T03:29:21.209Z,99401.06
2023-05-13T03:31:48.997Z,99400.94
2023-05-13T03:34:16.600Z,99399.06
2023-05-13T03:36:43.498Z,99398.84
2023-05-13T03:39:10.696Z,99404.75
2023-05-13T03:41:37.786Z,99402.88
2023-05-13T03:44:05.113Z,99409.69
2023-05-13T03:46:32.334Z,99408.66
2023-05-13T03:48:59.616Z,99409.34
2023-05-13T03:51:26.581Z,99421.34
2023-05-13T03:53:53.726Z,99420.31
2023-05-13T03:56:21.690Z,99415.75
2023-05-13T03:58:49.006Z,99420.75
2023-05-13T04:01:15.917Z,99417.88
2023-05-13T04:03:45.456Z,99423.63
2023-05-13T04:06:14.068Z,99429.47
2023-05-13T04:08:41.296Z,99422.09
2023-05-13T04:11:08.205Z,99421.75
2023-05-13T04:13:36.248Z,99433.69
2023-05-13T04:16:03.778Z,99429.06
2023-05-13T04:18:31.573Z,99432.19
2023-05-13T04:20:58.424Z,99422.91
2023-05-13T04:23:25.621Z,99426.59
2023-05-13T04:25:52.827Z,99431.88
2023-05-13T04:28:20.943Z,99435.31
2023-05-13T04:30:47.828Z,99432.50
2023-05-13T04:33:15.134Z,99439.22
2023-05-13T04:35:42.223Z,99431.78
2023-05-13T04:38:09.639Z,99435.59
2023-05-13T04:40:36.768Z,99442.03
2023-05-13T04:43:04.073Z,99446.84
2023-05-13T04:45:31.952Z,99451.06
2023-05-13T04:47:59.202Z,99447.34
2023-05-13T04:50:26.435Z,99445.38
2023-05-13T04:52:54.981Z,99444.91
2023-05-13T04:55:22.834Z,99445.44
2023-05-13T04:57:50.272Z,99446.91
2023-05-13T05:00:17.414Z,99447.47
2023-05-13T05:02:44.585Z,99447.75
2023-05-13T05:05:11.581Z,99444.31
2023-05-13T05:07:40.639Z,99442.81
2023-05-13T05:10:08.661Z,99440.03
2023-05-13T05:12:36.361Z,99446.19
2023-05-13T05:15:03.328Z,99434.53
2023-05-13T05:17:32.905Z,99442.69
2023-05-13T05:19:59.934Z,99444.16
2023-05-13T05:22:27.373Z,99441.91
2023-05-13T05:24:54.267Z,99444.19
2023-05-13T05:27:21.564Z,99442.50
2023-05-13T05:29:48.464Z,99442.19
2023-05-13T05:32:15.652Z,99447.22
2023-05-13T05:34:42.525Z,99439.31
2023-05-13T05:37:09.717Z,99445.03
2023-05-13T05:39:36.624Z,99435.88
2023-05-13T05:42:03.955Z,99434.69
2023-05-13T05:44:30.820Z,99436.66
2023-05-13T05:46:57.949Z,99433.28
2023-05-13T05:49:24.821Z,99435.00
2023-05-13T05:51:52.024Z,99432.75
2023-05-13T05:54:18.916Z,99436.19
2023-05-13T05:56:46.115Z,99438.31
2023-05-13T05:59:12.942Z,99435.16
2023-05-13T06:01:40.134Z,99437.25
2023-05-13T06:04:07.199Z,99441.69
2023-05-13T06:06:34.929Z,99439.00
2023-05-13T06:09:01.899Z,99434.53
2023-05-13T06:11:29.153Z,99436.69
2023-05-13T06:13:57.637Z,99431.00
2023-05-13T06:16:24.914Z,99429.56
2023-05-13T06:18:51.876Z,99440.19
2023-05-13T06:21:19.133Z,99437.47
2023-05-13T06:23:46.181Z,99452.22
2023-05-13T06:26:13.382Z,99440.81
2023-05-13T06:28:40.326Z,99446.28
2023-05-13T06:31:07.524Z,99446.44
2023-05-13T06:33:34.496Z,99444.59
2023-05-13T06:36:01.780Z,99461.50
2023-05-13T06:38:28.669Z,99452.13
2023-05-13T06:40:55.875Z,99455.66
2023-05-13T06:43:22.820Z,99442.41
2023-05-13T06:45:50.018Z,99442.81
2023-05-13T06:48:16.904Z,99446.13
2023-05-13T06:50:44.099Z,99454.38
2023-05-13T06:53:13.642Z,99458.81
2023-05-13T06:55:41.881Z,99451.66
2023-05-13T06:58:09.598Z,99477.00
2023-05-13T07:00:38.596Z,99461.25
2023-05-13T07:03:06.961Z,99454.28
2023-05-13T07:05:34.865Z,99448.19
2023-05-13T07:08:06.735Z,99453.84
2023-05-13T07:10:34.777Z,99448.41
2023-05-13T07:13:02.567Z,99459.00
2023-05-13T07:15:29.888Z,99451.50
2023-05-13T07:17:56.857Z,99449.59
2023-05-13T07:20:24.480Z,99442.56
2023-05-13T07:22:51.994Z,99451.91
2023-05-13T07:25:19.430Z,99437.31
2023-05-13T07:27:46.358Z,99443.13
2023-05-13T07:30:13.955Z,99471.16
2023-05-13T07:32:40.906Z,99485.69
2023-05-13T07:35:09.250Z,99458.75
2023-05-13T07:37:37.163Z,99441.28
2023-05-13T07:40:06.643Z,99493.84
2023-05-13T07:42:33.455Z,99456.44
2023-05-13T07:45:00.679Z,99471.94
2023-05-13T07:47:29.140Z,99452.84
2023-05-13T07:49:56.596Z,99472.22
2023-05-13T07:52:23.558Z,99442.78
2023-05-13T07:54:50.924Z,99449.56
2023-05-13T07:57:17.840Z,99440.28
2023-05-13T07:59:45.449Z,99431.03
2023-05-13T08:02:12.689Z,99439.69
2023-05-13T08:04:40.176Z,99454.06
2023-05-13T08:07:07.073Z,99451.31
2023-05-13T08:09:34.231Z,99426.63
2023-05-13T08:12:01.087Z,99432.75
2023-05-13T08:14:28.570Z,99433.28
2023-05-13T08:16:56.075Z,99449.75
2023-05-13T08:19:23.276Z,99431.59
2023-05-13T08:21:50.355Z,99423.34
2023-05-13T08:24:17.616Z,99428.03
2023-05-13T08:26:44.552Z,99441.97
2023-05-13T08:29:14.079Z,99428.81
2023-05-13T08:31:41.825Z,99439.28
2023-05-13T08:34:09.017Z,99428.94
2023-05-13T08:36:35.891Z,99439.91
2023-05-13T08:39:03.279Z,99431.81
2023-05-13T08:41:33.501Z,99436.09
2023-05-13T08:44:04.528Z,99418.81
2023-05-13T08:46:34.509Z,99453.94
2023-05-13T08:49:02.420Z,99424.75
2023-05-13T08:51:29.696Z,99434.25
2023-05-13T08:53:56.958Z,99413.22
2023-05-13T08:56:25.712Z,99429.66
2023-05-13T08:58:52.786Z,99427.69
2023-05-13T09:01:19.882Z,99423.03
2023-05-13T09:04:08.694Z,99426.72
2023-05-13T09:06:35.518Z,99431.94
2023-05-13T09:09:03.165Z,99408.81
2023-05-13T09:11:30.058Z,99473.56
2023-05-13T09:14:01.910Z,99440.47
2023-05-13T09:16:29.984Z,99418.03
2023-05-13T09:19:03.221Z,99420.25
2023-05-13T09:21:31.971Z,99412.69
2023-05-13T09:24:19.070Z,99413.19
2023-05-13T09:26:46.606Z,99410.78
2023-05-13T09:29:19.451Z,99395.38
2023-05-13T09:31:55.002Z,99398.41
2023-05-13T09:34:29.983Z,99396.47
2023-05-13T09:37:08.263Z,99396.53
2023-05-13T09:39:41.458Z,99429.44
2023-05-13T09:42:18.754Z,99408.44
2023-05-13T09:44:46.805Z,99410.13
2023-05-13T09:47:15.005Z,99403.69
2023-05-13T09:49:43.693Z,99419.47
2023-05-13T09:52:11.988Z,99390.31
2023-05-13T09:54:39.390Z,99388.91
2023-05-13T09:57:06.806Z,99388.59
2023-05-13T09:59:37.028Z,99383.78
2023-05-13T10:02:06.899Z,99383.22
2023-05-13T10:04:34.475Z,99405.25
2023-05-13T10:07:03.819Z,99385.53
2023-05-13T10:09:36.634Z,99371.59
2023-05-13T10:12:06.754Z,99379.25
2023-05-13T10:14:36.790Z,99392.66
2023-05-13T10:17:05.453Z,99402.59
2023-05-13T10:19:33.771Z,99378.06
2023-05-13T10:22:01.559Z,99377.13
2023-05-13T10:24:29.509Z,99376.28
2023-05-13T10:26:57.273Z,99382.59
2023-05-13T10:29:25.633Z,99382.22
2023-05-13T10:31:54.291Z,99370.59
2023-05-13T10:34:23.074Z,99375.41
2023-05-13T10:37:07.127Z,99356.00
2023-05-13T10:39:52.969Z,99364.31
2023-05-13T10:43:09.016Z,99358.69
2023-05-13T10:45:36.335Z,99361.72
2023-05-13T10:48:12.168Z,99351.31
2023-05-13T10:50:39.744Z,99353.69
2023-05-13T10:53:17.834Z,99368.28
2023-05-13T10:55:45.830Z,99367.41
2023-05-13T10:58:14.595Z,99356.44
2023-05-13T11:00:43.931Z,99373.50
2023-05-13T11:03:13.888Z,99367.09
2023-05-13T11:05:47.356Z,99391.00
2023-05-13T11:08:43.513Z,99388.97
2023-05-13T11:11:23.016Z,99393.50
2023-05-13T11:13:54.879Z,99376.78
2023-05-13T11:16:23.857Z,99375.91
2023-05-13T11:18:52.630Z,99386.06
2023-05-13T11:21:35.230Z,99368.72
2023-05-13T11:24:04.270Z,99397.41
2023-05-13T11:26:59.094Z,99398.78
2023-05-13T11:29:29.829Z,99381.56
2023-05-13T11:32:00.229Z,99383.72
2023-05-13T11:34:27.948Z,99371.41
2023-05-13T11:37:04.193Z,99377.41
2023-05-13T11:39:32.009Z,99377.41
2023-05-13T11:42:06.711Z,99377.44
2023-05-13T11:44:34.686Z,99385.31
2023-05-13T11:47:06.085Z,99403.31
2023-05-13T11:49:42.900Z,99388.88
2023-05-13T11:52:18.663Z,99369.16
2023-05-13T11:54:46.510Z,99391.16
2023-05-13T11:57:26.776Z,99400.78
2023-05-13T11:59:58.172Z,99397.91
2023-05-13T12:02:37.455Z,99383.25
2023-05-13T12:05:06.745Z,99391.19
2023-05-13T12:07:35.460Z,99396.78
2023-05-13T12:10:03.989Z,99394.34
2023-05-13T12:12:34.782Z,99383.94
2023-05-13T12:15:07.715Z,99373.38
2023-05-13T12:17:35.712Z,99389.16
2023-05-13T12:20:08.729Z,99381.09
2023-05-13T12:22:37.009Z,99370.91
2023-05-13T12:25:35.123Z,99381.50
2023-05-13T12:28:11.956Z,99396.53
2023-05-13T12:30:41.361Z,99373.63
2023-05-13T12:33:19.346Z,99375.56
2023-05-13T12:35:48.468Z,99362.63
2023-05-13T12:38:17.899Z,99376.19
2023-05-13T12:40:46.566Z,99381.53
2023-05-13T12:43:14.488Z,99373.47
2023-05-13T12:45:45.075Z,99371.84
2023-05-13T12:48:14.483Z,99386.22
2023-05-13T12:50:41.421Z,99379.59
2023-05-13T12:53:08.626Z,99375.00
2023-05-13T12:55:39.967Z,99370.94
2023-05-13T12:58:11.156Z,99352.19
2023-05-13T13:00:38.298Z,99355.69
2023-05-13T13:03:06.035Z,99367.56
2023-05-13T13:05:33.516Z,99362.59
2023-05-13T13:08:05.488Z,99376.81
2023-05-13T13:10:32.535Z,99390.00
2023-05-13T13:12:59.684Z,99366.91
2023-05-13T13:15:26.527Z,99371.31
2023-05-13T13:17:53.767Z,99389.38
2023-05-13T13:20:20.759Z,99363.63
2023-05-13T13:22:47.944Z,99361.25
2023-05-13T13:25:14.891Z,99378.53
2023-05-13T13:27:42.038Z,99353.75
2023-05-13T13:30:09.295Z,99355.44
2023-05-13T13:32:36.588Z,99345.09
2023-05-13T13:35:05.691Z,99384.78
2023-05-13T13:37:33.118Z,99363.03
2023-05-13T13:40:00.177Z,99367.31
2023-05-13T13:42:40.092Z,99359.41
2023-05-13T13:45:10.723Z,99356.81
2023-05-13T13:47:38.513Z,99356.97
2023-05-13T13:50:06.501Z,99355.66
2023-05-13T13:52:33.740Z,99351.78
2023-05-13T13:55:00.693Z,99350.75
2023-05-13T13:57:28.034Z,99332.88
2023-05-13T13:59:54.887Z,99348.59
2023-05-13T14:02:22.110Z,99368.16
2023-05-13T14:04:49.161Z,99345.16
2023-05-13T14:07:16.696Z,99351.69
2023-05-13T14:09:43.555Z,99345.09
2023-05-13T14:12:10.720Z,99361.44
2023-05-13T14:14:37.586Z,99348.63
2023-05-13T14:17:04.864Z,99347.25
2023-05-13T14:19:31.736Z,99347.66
2023-05-13T14:21:58.927Z,99360.63
2023-05-13T14:24:27.163Z,99363.06
2023-05-13T14:26:54.336Z,99352.81
2023-05-13T14:29:21.180Z,99363.91
2023-05-13T14:31:48.515Z,99346.53
2023-05-13T14:34:16.632Z,99373.78
2023-05-13T14:36:43.824Z,99349.97
2023-05-13T14:39:10.935Z,99358.09
2023-05-13T14:41:39.504Z,99361.63
2023-05-13T14:44:06.512Z,99358.97
2023-05-13T14:46:37.178Z,99351.47
2023-05-13T14:49:04.110Z,99358.09
2023-05-13T14:51:31.517Z,99356.28
2023-05-13T14:53:58.377Z,99361.31
2023-05-13T14:56:25.570Z,99353.81
2023-05-13T14:58:53.095Z,99355.66
2023-05-13T15:01:20.332Z,99361.50
2023-05-13T15:03:47.296Z,99355.97
2023-05-13T15:06:14.546Z,99368.16
2023-05-13T15:08:41.554Z,99363.72
2023-05-13T15:11:08.733Z,99356.56
2023-05-13T15:13:36.917Z,99357.97
2023-05-13T15:16:04.921Z,99352.38
2023-05-13T15:18:31.941Z,99361.81
2023-05-13T15:20:59.094Z,99358.59
2023-05-13T15:23:26.023Z,99362.88
2023-05-13T15:25:53.269Z,99361.38
2023-05-13T15:28:20.163Z,99359.78
2023-05-13T15:30:47.456Z,99358.41
2023-05-13T15:33:14.462Z,99358.09
2023-05-13T15:35:42.611Z,99351.88
2023-05-13T15:38:10.871Z,99348.69
2023-05-13T15:40:39.135Z,99352.19
2023-05-13T15:43:06.026Z,99342.38
2023-05-13T15:45:33.195Z,99354.25
2023-05-13T15:48:00.079Z,99344.59
2023-05-13T15:50:27.531Z,99350.41
2023-05-13T15:52:54.821Z,99344.63
2023-05-13T15:55:22.336Z,99355.50
2023-05-13T15:57:50.485Z,99342.78
2023-05-13T16:00:18.697Z,99341.84
2023-05-13T16:02:45.607Z,99347.94
2023-05-13T16:05:15.334Z,99348.25
2023-05-13T16:07:42.548Z,99346.97
2023-05-13T16:10:10.123Z,99336.66
2023-05-13T16:12:37.487Z,99340.94
2023-05-13T16:15:05.031Z,99340.25
2023-05-13T16:17:31.977Z,99338.97
2023-05-13T16:20:00.087Z,99338.75
2023-05-13T16:22:30.442Z,99343.53
2023-05-13T16:25:02.518Z,99348.22
2023-05-13T16:27:29.752Z,99339.69
2023-05-13T16:29:58.586Z,99354.25
2023-05-13T16:32:26.009Z,99335.81
2023-05-13T16:34:53.557Z,99347.31
2023-05-13T16:37:20.533Z,99340.38
2023-05-13T16:39:47.802Z,99339.53
2023-05-13T16:42:14.735Z,99330.47
2023-05-13T16:44:41.903Z,99341.44
2023-05-13T16:47:09.247Z,99331.94
2023-05-13T16:49:36.876Z,99341.38
2023-05-13T16:52:04.701Z,99336.38
2023-05-13T16:54:32.197Z,99339.13
2023-05-13T16:56:59.635Z,99333.34
2023-05-13T16:59:28.382Z,99335.91
2023-05-13T17:01:55.493Z,99345.81
2023-05-13T17:04:22.828Z,99337.91
2023-05-13T17:06:49.782Z,99336.50
2023-05-13T17:09:16.945Z,99338.41
2023-05-13T17:11:43.802Z,99341.38
2023-05-13T17:14:10.998Z,99331.78
2023-05-13T17:16:38.671Z,99334.44
2023-05-13T17:19:05.960Z,99327.59
2023-05-13T17:21:32.830Z,99338.44
2023-05-13T17:24:00.637Z,99332.34
2023-05-13T17:26:28.025Z,99336.13
2023-05-13T17:28:55.182Z,99340.91
2023-05-13T17:31:23.635Z,99331.41
2023-05-13T17:33:50.841Z,99337.66
2023-05-13T17:36:18.079Z,99329.03
2023-05-13T17:38:45.398Z,99335.50
2023-05-13T17:41:12.272Z,99332.16
2023-05-13T17:43:39.461Z,99326.06
2023-05-13T17:46:06.344Z,99328.19
2023-05-13T17:48:33.569Z,99335.69
2023-05-13T17:51:00.580Z,99324.78
2023-05-13T17:53:27.810Z,99325.22
2023-05-13T17:55:54.721Z,99321.31
2023-05-13T17:58:21.968Z,99323.63
2023-05-13T18:00:49.636Z,99321.41
2023-05-13T18:03:16.948Z,99326.44
2023-05-13T18:05:43.950Z,99319.88
2023-05-13T18:08:11.257Z,99317.06
2023-05-13T18:10:38.404Z,99322.13
2023-05-13T18:13:05.785Z,99326.47
2023-05-13T18:15:32.737Z,99332.56
2023-05-13T18:18:01.220Z,99336.81
2023-05-13T18:20:28.185Z,99338.63
2023-05-13T18:22:55.317Z,99336.75
2023-05-13T18:25:22.190Z,99341.75
2023-05-13T18:27:50.619Z,99346.81
2023-05-13T18:30:18.475Z,99348.44
2023-05-13T18:32:45.903Z,99346.44
2023-05-13T18:35:12.961Z,99346.13
2023-05-13T18:37:40.194Z,99349.31
2023-05-13T18:40:07.788Z,99354.28
2023-05-13T18:42:34.965Z,99354.88
2023-05-13T18:45:01.853Z,99343.91
2023-05-13T18:47:29.111Z,99354.13
2023-05-13T18:49:56.169Z,99348.59
2023-05-13T18:52:23.345Z,99347.50
2023-05-13T18:54:50.237Z,99347.09
2023-05-13T18:57:17.963Z,99351.13
2023-05-13T18:59:44.864Z,99354.22
2023-05-13T19:02:12.224Z,99354.53
2023-05-13T19:04:39.221Z,99355.75
2023-05-13T19:07:06.488Z,99361.44
2023-05-13T19:09:35.819Z,99362.53
2023-05-13T19:12:03.167Z,99360.94
2023-05-13T19:14:30.082Z,99363.81
2023-05-13T19:16:57.327Z,99364.03
2023-05-13T19:19:24.692Z,99363.25
2023-05-13T19:21:52.155Z,99365.19
2023-05-13T19:24:19.082Z,99360.03
2023-05-13T19:26:46.294Z,99361.03
2023-05-13T19:29:13.225Z,99369.97
2023-05-13T19:31:40.533Z,99365.75
2023-05-13T19:34:07.774Z,99366.81
2023-05-13T19:36:34.985Z,99363.38
2023-05-13T19:39:01.979Z,99370.53
2023-05-13T19:41:29.212Z,99375.09
2023-05-13T19:43:56.105Z,99376.97
2023-05-13T19:46:23.430Z,99371.81
2023-05-13T19:48:50.419Z,99373.66
2023-05-13T19:51:18.217Z,99381.72
2023-05-13T19:53:45.249Z,99373.09
2023-05-13T19:56:12.613Z,99381.03
2023-05-13T19:58:39.549Z,99377.53
2023-05-13T20:01:06.693Z,99371.34
2023-05-13T20:03:33.701Z,99373.22
2023-05-13T20:06:01.910Z,99365.28
2023-05-13T20:08:31.587Z,99374.09
2023-05-13T20:10:59.345Z,99374.16
2023-05-13T20:13:26.235Z,99374.16
2023-05-13T20:15:53.468Z,99373.34
2023-05-13T20:18:20.440Z,99376.16
2023-05-13T20:20:48.162Z,99373.63
2023-05-13T20:23:15.100Z,99376.41
2023-05-13T20:25:42.364Z,99373.03
2023-05-13T20:28:09.249Z,99375.69
2023-05-13T20:30:36.463Z,99371.38
2023-05-13T20:33:03.512Z,99373.19
2023-05-13T20:35:30.713Z,99367.09
2023-05-13T20:37:58.569Z,99367.09
2023-05-13T20:40:25.833Z,99367.16
2023-05-13T20:42:52.738Z,99366.44
2023-05-13T20:45:19.963Z,99364.81
2023-05-13T20:47:46.893Z,99371.06
2023-05-13T20:50:14.222Z,99365.00
2023-05-13T20:52:41.228Z,99365.00
2023-05-13T20:55:08.864Z,99364.22
2023-05-13T20:57:35.720Z,99367.97
2023-05-13T21:00:03.071Z,99367.16
2023-05-13T21:02:30.031Z,99356.69
2023-05-13T21:04:57.195Z,99366.31
2023-05-13T21:07:24.097Z,99367.16
2023-05-13T21:09:51.428Z,99374.19
2023-05-13T21:12:18.301Z,99366.25
2023-05-13T21:14:45.450Z,99370.66
2023-05-13T21:17:12.351Z,99374.19
2023-05-13T21:19:39.801Z,99378.59
2023-05-13T21:22:06.648Z,99364.66
2023-05-13T21:24:33.886Z,99366.66
2023-05-13T21:27:00.772Z,99366.06
2023-05-13T21:29:30.228Z,99368.81
2023-05-13T21:31:57.401Z,99368.97
2023-05-13T21:34:24.657Z,99371.66
2023-05-13T21:36:52.597Z,99369.94
2023-05-13T21:39:19.859Z,99369.06
2023-05-13T21:41:47.753Z,99370.00
2023-05-13T21:44:14.884Z,99372.66
2023-05-13T21:46:41.791Z,99369.25
2023-05-13T21:49:09.040Z,99363.91
2023-05-13T21:51:35.947Z,99364.78
2023-05-13T21:54:03.082Z,99363.03
2023-05-13T21:56:29.897Z,99367.41
2023-05-13T21:58:57.094Z,99361.34
2023-05-13T22:01:24.054Z,99361.63
2023-05-13T22:03:51.383Z,99363.72
2023-05-13T22:06:18.212Z,99365.03
2023-05-13T22:08:45.798Z,99362.03
2023-05-13T22:11:12.755Z,99365.09
2023-05-13T22:13:40.063Z,99359.47
2023-05-13T22:16:07.125Z,99358.06
2023-05-13T22:18:34.673Z,99359.31
2023-05-13T22:21:01.805Z,99365.81
2023-05-13T22:23:28.980Z,99359.97
2023-05-13T22:25:55.897Z,99364.66
2023-05-13T22:28:23.106Z,99369.38
2023-05-13T22:30:52.886Z,99357.63
2023-05-13T22:33:20.075Z,99355.47
2023-05-13T22:35:47.336Z,99360.38
2023-05-13T22:38:14.567Z,99359.91
2023-05-13T22:40:41.569Z,99364.72
2023-05-13T22:43:08.755Z,99369.50
2023-05-13T22:45:36.938Z,99366.38
2023-05-13T22:48:04.256Z,99361.56
2023-05-13T22:50:31.184Z,99357.44
2023-05-13T22:52:58.334Z,99361.34
2023-05-13T22:55:25.223Z,99360.72
2023-05-13T22:57:52.384Z,99357.50
2023-05-13T23:00:19.265Z,99358.56
2023-05-13T23:02:46.486Z,99357.13
2023-05-13T23:05:13.528Z,99355.53
2023-05-13T23:07:40.671Z,99353.22
2023-05-13T23:10:07.995Z,99349.06
2023-05-13T23:12:35.222Z,99359.81
2023-05-13T23:15:02.241Z,99357.44
2023-05-13T23:17:29.829Z,99359.44
2023-05-13T23:19:56.741Z,99364.06
2023-05-13T23:22:23.923Z,99361.69
2023-05-13T23:24:50.883Z,99367.09
2023-05-13T23:27:18.128Z,99363.84
2023-05-13T23:29:45.076Z,99361.41
2023-05-13T23:32:12.370Z,99362.47
2023-05-13T23:34:39.285Z,99361.75
2023-05-13T23:37:06.586Z,99361.94
2023-05-13T23:39:33.500Z,99359.53
2023-05-13T23:42:00.641Z,99358.72
2023-05-13T23:44:28.808Z,99355.38
2023-05-13T23:46:55.950Z,99354.66
2023-05-13T23:49:22.915Z,99351.28
2023-05-13T23:51:50.056Z,99354.00
2023-05-13T23:54:16.938Z,99355.06
2023-05-13T23:56:44.104Z,99358.66
2023-05-13T23:59:11.173Z,99350.97
